createdAt,value
2019-05-23T00:17:21.586Z,100.00
2019-05-23T00:19:51.251Z,100.00
2019-05-23T00:22:20.458Z,99.34
2019-05-23T00:24:49.608Z,99.20
2019-05-23T00:27:20.239Z,98.66
2019-05-23T00:29:51.390Z,98.13
2019-05-23T00:32:42.774Z,98.20
2019-05-23T00:35:11.922Z,98.10
2019-05-23T00:37:43.600Z,98.32
2019-05-23T00:40:15.818Z,97.94
2019-05-23T00:42:45.892Z,97.54
2019-05-23T00:45:15.428Z,97.64
2019-05-23T00:47:44.739Z,97.57
2019-05-23T00:50:16.509Z,98.08
2019-05-23T00:52:45.940Z,99.42
2019-05-23T00:55:16.486Z,99.98
2019-05-23T00:57:46.416Z,99.75
2019-05-23T01:00:19.335Z,99.58
2019-05-23T01:02:49.113Z,99.09
2019-05-23T01:05:18.729Z,98.83
2019-05-23T01:07:48.306Z,98.46
2019-05-23T01:10:18.862Z,98.22
2019-05-23T01:12:48.477Z,98.46
2019-05-23T01:15:21.006Z,98.31
2019-05-23T01:17:50.695Z,98.44
2019-05-23T01:20:23.631Z,98.40
2019-05-23T01:22:54.417Z,98.71
2019-05-23T01:25:24.153Z,98.51
2019-05-23T01:27:54.249Z,98.21
2019-05-23T01:30:27.982Z,98.39
2019-05-23T01:32:58.416Z,98.53
2019-05-23T01:35:27.800Z,98.65
2019-05-23T01:37:58.201Z,98.81
2019-05-23T01:40:27.656Z,98.61
2019-05-23T01:42:58.419Z,98.86
2019-05-23T01:45:28.029Z,98.90
2019-05-23T01:47:57.766Z,99.02
2019-05-23T01:50:27.042Z,98.90
2019-05-23T01:52:57.713Z,98.73
2019-05-23T01:55:27.354Z,98.78
2019-05-23T01:57:56.323Z,99.15
2019-05-23T02:00:27.932Z,99.80
2019-05-23T02:02:58.137Z,99.92
2019-05-23T02:05:27.642Z,100.00
2019-05-23T02:07:57.366Z,100.00
2019-05-23T02:10:26.987Z,99.99
2019-05-23T02:12:56.590Z,100.00
2019-05-23T02:15:25.948Z,100.00
2019-05-23T02:17:55.029Z,100.00
2019-05-23T02:20:24.702Z,100.00
2019-05-23T02:22:54.401Z,100.00
2019-05-23T02:25:24.307Z,100.00
2019-05-23T02:27:54.186Z,100.00
2019-05-23T02:30:34.604Z,100.00
2019-05-23T02:32:55.662Z,100.00
2019-05-23T02:35:25.219Z,100.00
2019-05-23T02:38:22.402Z,100.00
2019-05-23T02:41:13.026Z,100.00
2019-05-23T02:43:45.743Z,100.00
2019-05-23T02:46:24.272Z,100.00
2019-05-23T02:48:57.180Z,100.00
2019-05-23T02:51:29.289Z,100.00
2019-05-23T02:54:01.843Z,100.00
2019-05-23T02:56:34.635Z,99.44
2019-05-23T02:59:23.826Z,100.00
2019-05-23T03:02:50.796Z,100.00
2019-05-23T03:05:22.600Z,100.00
2019-05-23T03:07:53.942Z,100.00
2019-05-23T03:10:26.993Z,100.00
2019-05-23T03:12:58.581Z,100.00
2019-05-23T03:15:28.778Z,100.00
2019-05-23T03:18:00.673Z,100.00
2019-05-23T03:20:30.485Z,100.00
2019-05-23T03:23:04.092Z,100.00
2019-05-23T03:26:15.487Z,100.00
2019-05-23T03:28:44.391Z,100.00
2019-05-23T03:31:29.389Z,100.00
2019-05-23T03:33:52.112Z,100.00
2019-05-23T03:36:21.765Z,100.00
2019-05-23T03:38:51.369Z,100.00
2019-05-23T03:41:21.957Z,100.00
2019-05-23T03:43:50.957Z,100.00
2019-05-23T03:46:22.240Z,100.00
2019-05-23T03:48:53.092Z,100.00
2019-05-23T03:51:23.739Z,100.00
2019-05-23T03:53:54.528Z,99.62
2019-05-23T03:56:24.910Z,100.00
2019-05-23T03:58:56.202Z,100.00
2019-05-23T04:01:45.943Z,100.00
2019-05-23T04:03:58.597Z,100.00
2019-05-23T04:06:29.735Z,100.00
2019-05-23T04:08:58.670Z,100.00
2019-05-23T04:11:28.295Z,100.00
2019-05-23T04:13:57.580Z,100.00
2019-05-23T04:16:30.466Z,100.00
2019-05-23T04:18:56.991Z,100.00
2019-05-23T04:21:26.052Z,100.00
2019-05-23T04:23:55.045Z,100.00
2019-05-23T04:26:24.057Z,100.00
2019-05-23T04:28:53.667Z,100.00
2019-05-23T04:31:23.277Z,100.00
2019-05-23T04:33:52.459Z,100.00
2019-05-23T04:36:22.682Z,100.00
2019-05-23T04:38:51.732Z,100.00
2019-05-23T04:41:20.538Z,100.00
2019-05-23T04:43:49.494Z,100.00
2019-05-23T04:46:18.871Z,100.00
2019-05-23T04:48:47.796Z,100.00
2019-05-23T04:51:16.966Z,100.00
2019-05-23T04:53:45.868Z,100.00
2019-05-23T04:56:15.041Z,100.00
2019-05-23T04:58:44.490Z,100.00
2019-05-23T05:01:14.660Z,100.00
2019-05-23T05:03:46.373Z,100.00
2019-05-23T05:06:15.537Z,100.00
2019-05-23T05:08:44.635Z,100.00
2019-05-23T05:11:14.119Z,99.59
2019-05-23T05:13:44.112Z,98.96
2019-05-23T05:16:13.463Z,98.85
2019-05-23T05:18:43.230Z,98.49
2019-05-23T05:21:12.338Z,98.03
2019-05-23T05:24:18.644Z,97.70
2019-05-23T05:26:47.590Z,97.68
2019-05-23T05:29:16.539Z,97.82
2019-05-23T05:31:45.763Z,97.85
2019-05-23T05:34:15.209Z,97.18
2019-05-23T05:36:44.223Z,96.28
2019-05-23T05:39:13.817Z,95.44
2019-05-23T05:41:43.305Z,94.43
2019-05-23T05:44:13.190Z,92.91
2019-05-23T05:46:42.869Z,91.68
2019-05-23T05:49:12.150Z,87.12
2019-05-23T05:51:41.183Z,87.12
2019-05-23T05:54:10.349Z,84.10
2019-05-23T05:56:39.179Z,82.68
2019-05-23T05:59:08.342Z,81.32
2019-05-23T06:01:37.343Z,77.76
2019-05-23T06:04:06.632Z,75.00
2019-05-23T06:06:43.950Z,71.82
2019-05-23T06:09:20.435Z,69.40
2019-05-23T06:11:49.620Z,69.30
2019-05-23T06:14:28.178Z,55.83
2019-05-23T06:16:57.154Z,49.54
2019-05-23T06:19:26.184Z,51.00
2019-05-23T06:21:55.511Z,50.55
2019-05-23T06:24:42.711Z,52.95
2019-05-23T06:26:55.535Z,63.89
2019-05-23T06:29:25.247Z,69.58
2019-05-23T06:31:54.396Z,72.13
2019-05-23T06:34:23.520Z,66.24
2019-05-23T06:36:53.051Z,67.37
2019-05-23T06:39:22.947Z,65.40
2019-05-23T06:41:51.955Z,66.25
2019-05-23T06:44:21.494Z,67.13
2019-05-23T06:46:50.435Z,63.22
2019-05-23T06:49:19.478Z,64.46
2019-05-23T06:51:48.574Z,62.12
2019-05-23T06:54:17.664Z,61.44
2019-05-23T06:56:46.771Z,61.78
2019-05-23T06:59:15.583Z,59.07
2019-05-23T07:01:44.391Z,60.97
2019-05-23T07:04:13.368Z,57.95
2019-05-23T07:06:42.479Z,56.42
2019-05-23T07:09:15.596Z,57.71
2019-05-23T07:11:44.733Z,55.67
2019-05-23T07:14:13.702Z,56.03
2019-05-23T07:16:43.241Z,55.92
2019-05-23T07:19:12.886Z,53.50
2019-05-23T07:21:42.201Z,52.88
2019-05-23T07:24:11.289Z,52.22
2019-05-23T07:26:40.817Z,52.56
2019-05-23T07:29:11.135Z,51.94
2019-05-23T07:31:40.146Z,51.19
2019-05-23T07:34:09.004Z,51.50
2019-05-23T07:36:38.278Z,48.88
2019-05-23T07:39:11.485Z,49.14
2019-05-23T07:41:39.635Z,49.84
2019-05-23T07:44:08.748Z,48.61
2019-05-23T07:46:37.665Z,49.55
2019-05-23T07:49:06.745Z,47.58
2019-05-23T07:51:35.902Z,47.73
2019-05-23T07:54:12.374Z,47.14
2019-05-23T07:56:41.402Z,46.42
2019-05-23T07:59:10.292Z,47.13
2019-05-23T08:01:41.763Z,47.77
2019-05-23T08:04:21.516Z,46.75
2019-05-23T08:06:42.063Z,47.08
2019-05-23T08:09:11.523Z,45.58
2019-05-23T08:11:40.365Z,44.32
2019-05-23T08:14:11.986Z,43.82
2019-05-23T08:16:40.398Z,45.68
2019-05-23T08:19:09.347Z,45.06
2019-05-23T08:21:38.539Z,44.19
2019-05-23T08:24:08.120Z,43.69
2019-05-23T08:26:37.511Z,43.54
2019-05-23T08:29:25.343Z,44.74
2019-05-23T08:31:37.766Z,44.06
2019-05-23T08:34:07.408Z,43.37
2019-05-23T08:36:36.497Z,44.69
2019-05-23T08:39:07.614Z,44.79
2019-05-23T08:41:36.927Z,45.58
2019-05-23T08:44:06.167Z,44.39
2019-05-23T08:46:35.287Z,44.20
2019-05-23T08:49:04.963Z,45.41
2019-05-23T08:51:34.559Z,43.69
2019-05-23T08:54:03.551Z,44.64
2019-05-23T08:56:32.893Z,45.19
2019-05-23T08:59:01.943Z,43.92
2019-05-23T09:01:31.334Z,43.84
2019-05-23T09:04:00.899Z,47.28
2019-05-23T09:06:30.796Z,45.76
2019-05-23T09:08:59.919Z,46.35
2019-05-23T09:11:28.787Z,44.61
2019-05-23T09:13:57.866Z,45.33
2019-05-23T09:16:26.803Z,45.49
2019-05-23T09:18:55.798Z,44.36
2019-05-23T09:21:24.984Z,44.03
2019-05-23T09:23:53.777Z,44.19
2019-05-23T09:26:23.409Z,42.55
2019-05-23T09:28:52.513Z,42.72
2019-05-23T09:31:22.684Z,42.09
2019-05-23T09:33:51.655Z,42.00
2019-05-23T09:36:20.837Z,43.56
2019-05-23T09:38:49.792Z,42.68
2019-05-23T09:41:18.790Z,42.04
2019-05-23T09:43:48.107Z,42.88
2019-05-23T09:46:17.123Z,42.62
2019-05-23T09:48:46.082Z,41.45
2019-05-23T09:51:15.286Z,41.89
2019-05-23T09:53:47.365Z,39.98
2019-05-23T09:56:15.154Z,41.80
2019-05-23T09:58:44.110Z,41.10
2019-05-23T10:01:14.543Z,41.32
2019-05-23T10:03:43.460Z,39.87
2019-05-23T10:06:12.425Z,41.04
2019-05-23T10:08:41.425Z,40.14
2019-05-23T10:11:11.580Z,38.81
2019-05-23T10:13:40.400Z,40.12
2019-05-23T10:16:10.608Z,38.63
2019-05-23T10:18:41.324Z,39.62
2019-05-23T10:21:10.462Z,39.38
2019-05-23T10:23:39.277Z,39.86
2019-05-23T10:26:08.396Z,38.68
2019-05-23T10:28:37.261Z,38.37
2019-05-23T10:31:08.034Z,38.96
2019-05-23T10:33:37.304Z,38.57
2019-05-23T10:36:06.600Z,39.16
2019-05-23T10:38:35.476Z,39.02
2019-05-23T10:41:07.360Z,39.99
2019-05-23T10:43:36.309Z,41.56
2019-05-23T10:46:05.486Z,38.67
2019-05-23T10:48:34.559Z,38.95
2019-05-23T10:51:03.839Z,39.20
2019-05-23T10:53:32.774Z,39.09
2019-05-23T10:56:01.629Z,38.33
2019-05-23T10:58:30.975Z,39.12
2019-05-23T11:00:59.922Z,38.08
2019-05-23T11:03:29.705Z,37.45
2019-05-23T11:06:13.369Z,39.47
2019-05-23T11:08:30.766Z,40.52
2019-05-23T11:11:00.156Z,38.95
2019-05-23T11:13:29.786Z,39.17
2019-05-23T11:15:59.031Z,39.72
2019-05-23T11:18:27.879Z,40.54
2019-05-23T11:20:56.781Z,38.70
2019-05-23T11:23:30.616Z,38.74
2019-05-23T11:26:01.495Z,37.82
2019-05-23T11:28:31.659Z,39.19
2019-05-23T11:31:01.681Z,37.89
2019-05-23T11:33:30.455Z,38.24
2019-05-23T11:35:59.506Z,38.22
2019-05-23T11:38:28.864Z,38.78
2019-05-23T11:40:57.861Z,37.45
2019-05-23T11:43:27.252Z,37.38
2019-05-23T11:46:04.344Z,38.14
2019-05-23T11:48:34.739Z,39.07
2019-05-23T11:51:04.119Z,37.76
2019-05-23T11:53:36.025Z,38.98
2019-05-23T11:56:05.736Z,38.68
2019-05-23T11:58:34.849Z,39.53
2019-05-23T12:01:21.260Z,38.09
2019-05-23T12:03:55.094Z,37.00
2019-05-23T12:06:26.649Z,38.12
2019-05-23T12:08:55.658Z,37.10
2019-05-23T12:11:30.658Z,37.58
2019-05-23T12:13:59.778Z,37.60
2019-05-23T12:16:28.769Z,36.21
2019-05-23T12:18:57.645Z,36.74
2019-05-23T12:21:26.782Z,39.01
2019-05-23T12:23:55.654Z,36.86
2019-05-23T12:26:24.905Z,37.03
2019-05-23T12:28:53.835Z,35.65
2019-05-23T12:31:23.470Z,35.73
2019-05-23T12:33:52.430Z,35.76
2019-05-23T12:36:21.765Z,36.41
2019-05-23T12:38:51.134Z,36.30
2019-05-23T12:41:20.129Z,36.04
2019-05-23T12:43:52.886Z,36.65
2019-05-23T12:46:22.002Z,37.06
2019-05-23T12:49:09.990Z,37.14
2019-05-23T12:54:09.017Z,36.01
2019-05-23T12:56:38.222Z,36.16
2019-05-23T12:59:08.485Z,36.73
2019-05-23T13:01:39.449Z,37.29
2019-05-23T13:04:10.995Z,36.54
2019-05-23T13:06:40.511Z,36.94
2019-05-23T13:09:10.380Z,37.30
2019-05-23T13:11:39.375Z,36.31
2019-05-23T13:14:09.202Z,36.66
2019-05-23T13:16:38.270Z,36.18
2019-05-23T13:19:07.146Z,35.73
2019-05-23T13:21:36.118Z,35.36
2019-05-23T13:24:05.356Z,36.79
2019-05-23T13:26:34.281Z,36.06
2019-05-23T13:29:03.155Z,35.51
2019-05-23T13:31:32.101Z,37.39
2019-05-23T13:34:01.190Z,37.12
2019-05-23T13:36:30.010Z,38.14
2019-05-23T13:38:59.171Z,37.80
2019-05-23T13:41:28.316Z,37.97
2019-05-23T13:43:57.255Z,36.93
2019-05-23T13:46:26.275Z,37.44
2019-05-23T13:48:55.067Z,37.44
2019-05-23T13:51:24.185Z,37.98
2019-05-23T13:53:52.969Z,38.07
2019-05-23T13:56:21.998Z,38.99
2019-05-23T13:58:50.858Z,38.99
2019-05-23T14:01:19.671Z,38.65
2019-05-23T14:03:49.810Z,38.05
2019-05-23T14:06:19.598Z,39.05
2019-05-23T14:08:48.516Z,39.90
2019-05-23T14:11:18.108Z,39.75
2019-05-23T14:13:47.532Z,39.20
2019-05-23T14:16:16.884Z,39.21
2019-05-23T14:18:48.897Z,39.58
2019-05-23T14:21:17.745Z,39.03
2019-05-23T14:23:46.852Z,39.21
2019-05-23T14:26:16.278Z,38.74
2019-05-23T14:28:45.235Z,38.26
2019-05-23T14:31:15.942Z,38.62
2019-05-23T14:33:54.317Z,37.56
2019-05-23T14:36:32.511Z,37.52
2019-05-23T14:39:04.950Z,38.39
2019-05-23T14:41:45.031Z,37.79
2019-05-23T14:44:12.391Z,36.79
2019-05-23T14:46:50.370Z,38.66
2019-05-23T14:49:24.787Z,38.88
2019-05-23T14:52:09.756Z,37.52
2019-05-23T14:54:41.161Z,37.43
2019-05-23T14:57:11.109Z,37.90
2019-05-23T14:59:40.208Z,38.08
2019-05-23T15:02:14.456Z,37.22
2019-05-23T15:04:43.445Z,37.38
2019-05-23T15:07:12.229Z,37.16
2019-05-23T15:09:41.018Z,36.47
2019-05-23T15:12:10.636Z,36.87
2019-05-23T15:14:39.453Z,37.22
2019-05-23T15:17:08.486Z,35.99
2019-05-23T15:19:42.067Z,37.57
2019-05-23T15:22:08.040Z,36.83
2019-05-23T15:24:37.357Z,36.77
2019-05-23T15:27:06.328Z,37.24
2019-05-23T15:29:35.212Z,35.86
2019-05-23T15:32:04.096Z,38.80
2019-05-23T15:34:35.266Z,37.30
2019-05-23T15:37:03.465Z,35.87
2019-05-23T15:39:32.362Z,36.69
2019-05-23T15:42:01.208Z,36.60
2019-05-23T15:44:31.201Z,38.33
2019-05-23T15:47:17.855Z,38.09
2019-05-23T15:49:48.872Z,37.53
2019-05-23T15:52:43.075Z,38.01
2019-05-23T15:55:34.654Z,38.63
2019-05-23T15:58:11.071Z,38.13
2019-05-23T16:01:08.221Z,38.05
2019-05-23T16:03:49.621Z,37.08
2019-05-23T16:06:20.459Z,37.02
2019-05-23T16:08:50.142Z,36.44
2019-05-23T16:11:19.696Z,36.05
2019-05-23T16:13:48.633Z,34.64
2019-05-23T16:16:17.738Z,37.64
2019-05-23T16:18:47.511Z,36.79
2019-05-23T16:21:18.811Z,37.08
2019-05-23T16:23:47.880Z,37.42
2019-05-23T16:26:17.584Z,36.32
2019-05-23T16:28:46.449Z,33.74
2019-05-23T16:31:15.343Z,34.12
2019-05-23T16:33:45.460Z,31.51
2019-05-23T16:36:14.669Z,34.00
2019-05-23T16:38:44.267Z,34.49
2019-05-23T16:41:13.507Z,33.67
2019-05-23T16:43:42.416Z,35.05
2019-05-23T16:46:11.551Z,34.45
2019-05-23T16:48:40.583Z,35.04
2019-05-23T16:51:09.719Z,36.71
2019-05-23T16:53:39.258Z,37.63
2019-05-23T16:56:16.193Z,37.14
2019-05-23T16:59:04.236Z,36.39
2019-05-23T17:01:57.063Z,35.66
2019-05-23T17:04:47.809Z,36.14
2019-05-23T17:07:30.400Z,35.04
2019-05-23T17:10:09.550Z,35.63
2019-05-23T17:12:51.908Z,35.99
2019-05-23T17:15:34.755Z,36.04
2019-05-23T17:18:17.800Z,35.41
2019-05-23T17:21:08.565Z,36.38
2019-05-23T17:23:54.724Z,36.04
2019-05-23T17:26:51.864Z,35.71
2019-05-23T17:29:42.319Z,35.10
2019-05-23T17:32:13.001Z,35.67
2019-05-23T17:34:42.304Z,35.93
2019-05-23T17:37:12.269Z,35.92
2019-05-23T17:39:42.582Z,36.63
2019-05-23T17:42:11.793Z,36.80
2019-05-23T17:44:40.700Z,37.11
2019-05-23T17:47:09.920Z,37.04
2019-05-23T17:49:38.669Z,37.44
2019-05-23T17:52:08.598Z,37.17
2019-05-23T17:54:37.475Z,36.99
2019-05-23T17:57:06.580Z,37.50
2019-05-23T17:59:35.371Z,36.92
2019-05-23T18:02:05.799Z,37.44
2019-05-23T18:04:34.584Z,38.92
2019-05-23T18:07:03.970Z,37.81
2019-05-23T18:09:33.046Z,38.11
2019-05-23T18:12:03.694Z,38.71
2019-05-23T18:14:32.775Z,37.91
2019-05-23T18:17:02.095Z,38.99
2019-05-23T18:19:31.076Z,38.88
2019-05-23T18:22:00.580Z,39.75
2019-05-23T18:24:29.655Z,39.87
2019-05-23T18:26:58.722Z,40.01
2019-05-23T18:29:27.914Z,39.99
2019-05-23T18:31:57.261Z,41.15
2019-05-23T18:34:26.745Z,41.50
2019-05-23T18:36:56.100Z,40.77
2019-05-23T18:39:26.296Z,41.42
2019-05-23T18:41:55.637Z,42.50
2019-05-23T18:44:25.086Z,43.10
2019-05-23T18:46:55.717Z,42.15
2019-05-23T18:49:25.726Z,42.43
2019-05-23T18:51:54.680Z,42.71
2019-05-23T18:54:23.564Z,43.02
2019-05-23T18:56:52.686Z,43.75
2019-05-23T18:59:23.430Z,45.83
2019-05-23T19:01:52.262Z,45.00
2019-05-23T19:04:21.590Z,45.00
2019-05-23T19:06:51.267Z,45.63
2019-05-23T19:09:21.738Z,45.55
2019-05-23T19:11:50.712Z,48.79
2019-05-23T19:14:19.908Z,48.38
2019-05-23T19:16:48.953Z,51.67
2019-05-23T19:19:18.363Z,53.20
2019-05-23T19:21:47.898Z,54.53
2019-05-23T19:24:17.414Z,53.08
2019-05-23T19:26:48.371Z,54.90
2019-05-23T19:36:27.626Z,57.38
2019-05-23T19:38:56.480Z,58.67
2019-05-23T19:41:45.781Z,59.54
2019-05-23T19:44:14.571Z,58.98
2019-05-23T19:46:48.546Z,59.51
2019-05-23T19:49:17.651Z,61.17
2019-05-23T19:51:46.739Z,63.56
2019-05-23T19:54:15.968Z,63.33
2019-05-23T19:56:44.884Z,64.46
2019-05-23T19:59:20.765Z,65.43
2019-05-23T20:02:08.023Z,65.91
2019-05-23T20:04:39.826Z,67.28
2019-05-23T20:07:15.630Z,64.54
2019-05-23T20:09:44.633Z,64.12
2019-05-23T20:12:14.943Z,64.35
2019-05-23T20:14:43.939Z,67.34
2019-05-23T20:17:12.748Z,68.80
2019-05-23T20:19:41.811Z,68.39
2019-05-23T20:22:11.496Z,69.87
2019-05-23T20:24:40.563Z,70.04
2019-05-23T20:27:09.980Z,69.77
2019-05-23T20:29:39.438Z,69.12
2019-05-23T20:32:09.002Z,70.03
2019-05-23T20:34:37.811Z,72.27
2019-05-23T20:37:10.159Z,70.31
2019-05-23T20:39:38.817Z,72.23
2019-05-23T20:42:11.611Z,73.75
2019-05-23T20:44:38.904Z,75.24
2019-05-23T20:47:09.051Z,73.86
2019-05-23T20:49:39.541Z,73.64
2019-05-23T20:52:09.240Z,73.77
2019-05-23T20:54:38.111Z,73.84
2019-05-23T20:57:08.743Z,75.92
2019-05-23T20:59:37.668Z,72.21
2019-05-23T21:02:07.148Z,73.29
2019-05-23T21:04:36.064Z,74.40
2019-05-23T21:07:05.227Z,73.94
2019-05-23T21:09:34.184Z,75.64
2019-05-23T21:12:04.190Z,73.55
2019-05-23T21:14:33.280Z,77.34
2019-05-23T21:17:02.355Z,77.76
2019-05-23T21:19:31.531Z,76.71
2019-05-23T21:22:00.442Z,77.81
2019-05-23T21:24:31.542Z,76.85
2019-05-23T21:27:00.653Z,75.56
2019-05-23T21:29:30.010Z,76.69
2019-05-23T21:31:59.008Z,76.28
2019-05-23T21:34:28.245Z,78.38
2019-05-23T21:37:07.264Z,80.62
2019-05-23T21:39:35.832Z,79.43
2019-05-23T21:42:05.212Z,78.75
2019-05-23T21:44:34.195Z,79.21
2019-05-23T21:47:03.287Z,77.95
2019-05-23T21:49:32.353Z,79.81
2019-05-23T21:52:01.195Z,79.81
2019-05-23T21:54:30.203Z,76.89
2019-05-23T21:56:59.085Z,78.49
2019-05-23T21:59:28.063Z,78.27
2019-05-23T22:02:22.253Z,77.58
2019-05-23T22:05:04.889Z,78.35
2019-05-23T22:07:34.334Z,76.40
2019-05-23T22:10:06.745Z,76.88
2019-05-23T22:12:36.073Z,76.88
2019-05-23T22:15:06.246Z,78.77
2019-05-23T22:17:35.310Z,79.47
2019-05-23T22:20:09.709Z,82.17
2019-05-23T22:26:11.582Z,81.51
2019-05-23T22:28:47.289Z,78.49
2019-05-23T22:31:23.167Z,77.79
2019-05-23T22:34:46.030Z,81.01
2019-05-23T22:37:25.273Z,81.42
